Time;durP1;ratioP1;P1;durP2;ratioP2;P2;SDS_P1;SDS_P2;PMS_P1;PMS_P2;Temp;Humidity;BMP_temperature;BMP_pressure;BME280_temperature;BME280_humidity;BME280_pressure;Samples;Min_cycle;Max_cycle;Signal;HPM_P1;HPM_P2
2022/02/13 00:00:27;;;;;;;9.85;5.60;;;6.40;97.10;;;;;;4879212;29;20041;-75
2022/02/13 00:02:53;;;;;;;9.32;5.07;;;6.40;97.20;;;;;;4878680;29;20057;-74
2022/02/13 00:05:19;;;;;;;10.77;5.30;;;6.40;97.30;;;;;;4879035;29;20041;-77
2022/02/13 00:07:45;;;;;;;7.90;5.30;;;6.40;97.40;;;;;;4879205;29;20056;-77
2022/02/13 00:10:12;;;;;;;7.80;5.45;;;6.30;97.50;;;;;;4878512;29;20041;-74
2022/02/13 00:12:39;;;;;;;10.35;5.85;;;6.30;97.50;;;;;;4878984;29;20063;-74
2022/02/13 00:15:07;;;;;;;9.13;5.47;;;6.30;97.60;;;;;;4892857;29;20036;-74
2022/02/13 00:17:33;;;;;;;8.65;4.75;;;6.30;97.60;;;;;;4898211;29;20045;-74
2022/02/13 00:20:02;;;;;;;12.15;5.88;;;6.30;97.70;;;;;;4898113;29;20091;-74
2022/02/13 00:22:29;;;;;;;8.20;5.50;;;6.30;98.10;;;;;;4897879;29;20024;-75
2022/02/13 00:24:55;;;;;;;8.90;5.63;;;6.30;97.80;;;;;;4897788;29;20569;-75
2022/02/13 00:27:21;;;;;;;11.10;5.97;;;6.30;97.70;;;;;;4898148;29;20063;-75
2022/02/13 00:29:47;;;;;;;12.07;5.80;;;6.30;97.80;;;;;;4898196;29;20412;-74
2022/02/13 00:32:13;;;;;;;7.95;5.60;;;6.20;97.80;;;;;;4897837;29;20041;-74
2022/02/13 00:34:39;;;;;;;13.73;6.15;;;6.20;97.90;;;;;;4898170;29;20021;-74
2022/02/13 00:37:06;;;;;;;11.63;6.38;;;6.20;97.90;;;;;;4897717;29;20132;-74
2022/02/13 00:39:32;;;;;;;7.97;5.45;;;6.20;98.00;;;;;;4898051;29;20043;-74
2022/02/13 00:41:58;;;;;;;9.15;5.88;;;6.20;98.00;;;;;;4898362;29;20111;-74
2022/02/13 00:44:25;;;;;;;9.90;6.60;;;6.20;98.10;;;;;;4897838;29;20041;-75
2022/02/13 00:46:51;;;;;;;9.35;6.00;;;6.20;98.20;;;;;;4899637;29;20446;-74
2022/02/13 00:49:17;;;;;;;10.43;5.75;;;6.10;98.20;;;;;;4901812;29;20035;-74
2022/02/13 00:51:44;;;;;;;13.55;6.05;;;6.20;98.30;;;;;;4901401;29;20083;-75
2022/02/13 00:54:10;;;;;;;11.07;6.05;;;6.10;98.30;;;;;;4901900;29;20534;-74
2022/02/13 00:56:36;;;;;;;8.52;5.57;;;6.10;98.30;;;;;;4901376;29;20111;-75
2022/02/13 00:59:02;;;;;;;8.40;5.72;;;6.10;98.50;;;;;;4901623;29;20032;-73
2022/02/13 01:01:28;;;;;;;11.98;5.95;;;6.00;98.50;;;;;;4901143;29;20147;-74
2022/02/13 01:03:55;;;;;;;7.68;5.22;;;6.10;98.60;;;;;;4901940;29;20045;-75
2022/02/13 01:06:21;;;;;;;15.23;6.18;;;6.00;98.60;;;;;;4901875;29;20037;-78
2022/02/13 01:08:47;;;;;;;13.68;6.13;;;6.00;98.70;;;;;;4901509;29;20486;-74
2022/02/13 01:11:18;;;;;;;10.63;6.00;;;6.00;98.70;;;;;;4901387;29;20080;-75
2022/02/13 01:13:48;;;;;;;9.40;5.65;;;6.00;98.80;;;;;;4894542;29;20039;-74
2022/02/13 01:16:18;;;;;;;10.27;6.43;;;6.00;99.20;;;;;;4901455;29;20116;-74
2022/02/13 01:18:44;;;;;;;10.55;5.72;;;6.00;98.90;;;;;;4901175;29;20036;-75
2022/02/13 01:21:13;;;;;;;8.65;5.65;;;6.00;99.00;;;;;;4884221;29;20036;-74
2022/02/13 01:23:43;;;;;;;11.73;7.38;;;6.00;99.10;;;;;;4884660;29;20048;-75
2022/02/13 01:26:11;;;;;;;10.30;6.35;;;5.90;99.20;;;;;;4900743;29;20037;-74
2022/02/13 01:28:38;;;;;;;8.80;6.15;;;6.00;99.20;;;;;;4900482;29;20033;-74
2022/02/13 01:31:08;;;;;;;11.00;6.15;;;5.90;99.20;;;;;;4900924;29;20076;-74
2022/02/13 01:33:35;;;;;;;10.07;6.18;;;6.00;99.20;;;;;;4901036;29;20052;-74
2022/02/13 01:36:04;;;;;;;13.63;6.28;;;6.00;99.20;;;;;;4900818;29;20037;-74
2022/02/13 01:38:31;;;;;;;8.70;5.82;;;5.90;99.40;;;;;;4900842;29;20029;-75
2022/02/13 01:40:57;;;;;;;9.68;6.38;;;5.90;99.50;;;;;;4900680;29;20073;-74
2022/02/13 01:43:23;;;;;;;9.77;5.97;;;5.90;99.60;;;;;;4901089;29;20041;-74
2022/02/13 01:45:53;;;;;;;11.63;6.65;;;5.80;99.60;;;;;;4899443;29;20059;-74
2022/02/13 01:48:19;;;;;;;10.63;6.57;;;5.80;99.70;;;;;;4899051;29;20498;-74
2022/02/13 01:50:50;;;;;;;11.40;6.60;;;5.80;99.80;;;;;;4900598;29;20036;-74
2022/02/13 01:54:05;;;;;;;9.88;6.35;;;5.80;99.80;;;;;;4900549;29;20040;-74
2022/02/13 01:56:09;;;;;;;13.23;6.00;;;5.80;99.80;;;;;;4877428;29;20033;-73
2022/02/13 01:58:35;;;;;;;11.93;6.45;;;5.80;99.80;;;;;;4894530;29;20036;-74
2022/02/13 02:01:04;;;;;;;8.55;6.55;;;5.80;99.90;;;;;;4900529;29;20025;-75
2022/02/13 02:03:30;;;;;;;10.60;6.30;;;5.80;99.90;;;;;;4882806;29;20130;-74
2022/02/13 02:05:56;;;;;;;15.10;6.70;;;5.70;99.90;;;;;;4899839;29;20060;-75
2022/02/13 02:08:22;;;;;;;12.27;6.60;;;5.80;99.90;;;;;;4899248;29;20043;-75
2022/02/13 02:10:50;;;;;;;8.00;6.30;;;5.80;99.90;;;;;;4899162;29;20128;-75
2022/02/13 02:13:16;;;;;;;16.98;6.30;;;5.80;99.90;;;;;;4891181;29;20144;-75
2022/02/13 02:15:42;;;;;;;11.20;6.55;;;5.80;99.90;;;;;;4887982;29;20033;-75
2022/02/13 02:18:08;;;;;;;10.25;6.47;;;5.80;99.90;;;;;;4898662;29;20079;-75
2022/02/13 02:20:34;;;;;;;9.63;5.28;;;5.80;99.90;;;;;;4898596;29;20033;-75
2022/02/13 02:23:00;;;;;;;9.95;6.45;;;5.70;99.90;;;;;;4899788;29;20036;-75
2022/02/13 02:25:26;;;;;;;11.55;6.32;;;5.80;99.90;;;;;;4899822;29;20033;-75
2022/02/13 02:27:52;;;;;;;7.18;5.72;;;5.80;99.90;;;;;;4899940;29;20397;-75
2022/02/13 02:30:18;;;;;;;9.85;6.18;;;5.80;99.90;;;;;;4899145;29;20045;-76
2022/02/13 02:32:44;;;;;;;14.48;6.47;;;5.70;99.90;;;;;;4899590;29;20036;-75
2022/02/13 02:35:10;;;;;;;10.68;5.95;;;5.70;99.90;;;;;;4898918;29;20036;-74
2022/02/13 02:37:39;;;;;;;8.90;6.60;;;5.70;99.90;;;;;;4898575;29;20036;-75
2022/02/13 02:40:06;;;;;;;9.73;6.30;;;5.80;99.90;;;;;;4898576;29;20533;-75
2022/02/13 02:42:32;;;;;;;7.20;5.63;;;5.70;99.90;;;;;;4898574;29;20072;-74
2022/02/13 02:44:58;;;;;;;11.80;6.50;;;5.70;99.90;;;;;;4898865;29;20166;-75
2022/02/13 02:47:24;;;;;;;12.73;6.75;;;5.70;99.90;;;;;;4898922;29;20041;-75
2022/02/13 02:49:50;;;;;;;10.88;6.40;;;5.70;99.90;;;;;;4880962;29;20553;-75
2022/02/13 02:52:18;;;;;;;13.18;6.50;;;5.70;99.90;;;;;;4899723;29;20054;-75
2022/02/13 02:54:45;;;;;;;13.27;7.20;;;5.70;99.90;;;;;;4898691;29;20134;-75
2022/02/13 02:57:12;;;;;;;8.35;6.25;;;5.70;99.90;;;;;;4899456;29;20096;-74
2022/02/13 02:59:39;;;;;;;11.82;6.78;;;5.70;99.90;;;;;;4899757;29;20382;-75
2022/02/13 03:02:05;;;;;;;8.73;5.93;;;5.70;99.90;;;;;;4899187;29;20067;-75
2022/02/13 03:04:31;;;;;;;11.00;6.15;;;5.80;99.90;;;;;;4898719;29;20044;-76
2022/02/13 03:06:57;;;;;;;9.50;6.25;;;5.70;99.90;;;;;;4882333;29;20064;-75
2022/02/13 03:09:23;;;;;;;7.45;5.80;;;5.70;99.90;;;;;;4898044;29;20068;-75
2022/02/13 03:11:52;;;;;;;11.20;6.40;;;5.60;99.90;;;;;;4898741;29;20044;-75
2022/02/13 03:14:18;;;;;;;9.20;6.45;;;5.70;99.90;;;;;;4898660;29;20033;-74
2022/02/13 03:16:44;;;;;;;12.45;6.32;;;5.70;99.90;;;;;;4881632;29;20397;-74
2022/02/13 03:19:10;;;;;;;7.45;6.00;;;5.70;99.90;;;;;;4898980;29;20169;-74
2022/02/13 03:21:36;;;;;;;12.27;6.65;;;5.60;99.90;;;;;;4899064;29;20064;-74
2022/02/13 03:24:07;;;;;;;12.90;6.25;;;5.60;99.90;;;;;;4898598;29;20033;-74
2022/02/13 03:26:36;;;;;;;8.85;6.47;;;5.60;99.90;;;;;;4898901;29;20096;-75
2022/02/13 03:29:02;;;;;;;8.98;6.75;;;5.50;99.90;;;;;;4899344;29;20028;-75
2022/02/13 03:31:29;;;;;;;11.07;6.72;;;5.50;99.90;;;;;;4898040;29;20044;-75
2022/02/13 03:33:55;;;;;;;12.02;7.25;;;5.50;99.90;;;;;;4898107;29;20040;-75
2022/02/13 03:36:21;;;;;;;10.98;7.05;;;5.50;99.90;;;;;;4881960;29;20528;-74
2022/02/13 03:38:47;;;;;;;11.82;6.57;;;5.40;99.90;;;;;;4898937;29;20036;-76
2022/02/13 03:41:13;;;;;;;9.52;6.30;;;5.40;99.90;;;;;;4899009;29;20032;-75
2022/02/13 03:43:39;;;;;;;12.20;6.60;;;5.40;99.90;;;;;;4881663;29;20042;-75
2022/02/13 03:46:05;;;;;;;10.68;6.65;;;5.40;99.90;;;;;;4877924;29;20069;-75
2022/02/13 03:48:31;;;;;;;11.57;6.78;;;5.40;99.90;;;;;;4878236;29;20089;-75
2022/02/13 03:50:57;;;;;;;10.93;6.85;;;5.40;99.90;;;;;;4879324;29;20463;-75
2022/02/13 03:53:23;;;;;;;12.25;6.65;;;5.40;99.90;;;;;;4871090;29;20025;-74
2022/02/13 03:55:49;;;;;;;12.73;7.57;;;5.40;99.90;;;;;;4879649;29;20033;-75
2022/02/13 03:58:15;;;;;;;10.55;6.47;;;5.40;99.90;;;;;;4879414;29;20093;-75
2022/02/13 04:00:41;;;;;;;12.40;6.80;;;5.30;99.90;;;;;;4879745;29;20029;-75
2022/02/13 04:03:10;;;;;;;11.30;6.63;;;5.20;99.90;;;;;;4879563;29;20041;-74
2022/02/13 04:05:36;;;;;;;10.75;6.53;;;5.20;99.90;;;;;;4879440;29;20509;-75
2022/02/13 04:08:05;;;;;;;10.35;7.32;;;5.10;99.90;;;;;;4879501;29;20045;-75
2022/02/13 04:10:32;;;;;;;11.40;6.45;;;5.20;99.90;;;;;;4879610;29;20033;-74
2022/02/13 04:12:59;;;;;;;12.45;7.28;;;5.20;99.90;;;;;;4879278;29;20041;-75
2022/02/13 04:15:25;;;;;;;12.85;6.70;;;5.20;99.90;;;;;;4879707;29;20057;-74
2022/02/13 04:17:52;;;;;;;8.50;6.53;;;5.10;99.90;;;;;;4879593;29;20387;-75
2022/02/13 04:20:20;;;;;;;11.48;7.25;;;5.00;99.90;;;;;;4878628;29;20461;-74
2022/02/13 04:22:46;;;;;;;13.80;7.03;;;5.00;99.90;;;;;;4878980;29;20074;-75
2022/02/13 04:25:12;;;;;;;9.57;6.20;;;5.00;99.90;;;;;;4879710;29;20033;-75
2022/02/13 04:27:38;;;;;;;15.75;6.70;;;4.90;99.90;;;;;;4879502;29;20116;-75
2022/02/13 04:30:08;;;;;;;9.02;6.72;;;4.90;99.90;;;;;;4879462;29;20170;-73
2022/02/13 04:32:34;;;;;;;11.82;6.72;;;4.90;99.90;;;;;;4878864;29;20049;-75
2022/02/13 04:35:00;;;;;;;11.50;7.50;;;4.90;99.90;;;;;;4878992;29;20040;-75
2022/02/13 04:37:26;;;;;;;11.55;7.20;;;4.80;99.90;;;;;;4878189;29;20459;-75
2022/02/13 04:39:52;;;;;;;11.07;7.05;;;4.80;99.90;;;;;;4878761;29;20025;-74
2022/02/13 04:42:18;;;;;;;9.45;6.97;;;4.70;99.90;;;;;;4877890;29;20048;-75
2022/02/13 04:44:44;;;;;;;10.63;6.88;;;4.70;99.90;;;;;;4882682;29;20131;-75
2022/02/13 04:47:11;;;;;;;11.85;6.95;;;4.70;99.90;;;;;;4897854;29;20058;-75
2022/02/13 04:49:37;;;;;;;10.95;7.43;;;4.70;99.90;;;;;;4897924;29;20466;-75
2022/02/13 04:52:03;;;;;;;13.85;6.82;;;4.70;99.90;;;;;;4897846;29;20217;-75
2022/02/13 04:54:30;;;;;;;9.93;6.45;;;4.70;99.90;;;;;;4897291;29;20041;-74
2022/02/13 04:57:01;;;;;;;10.68;6.95;;;4.70;99.90;;;;;;4897582;29;20454;-75
2022/02/13 04:59:29;;;;;;;10.73;6.72;;;4.70;99.90;;;;;;4897722;29;20067;-77
2022/02/13 05:01:55;;;;;;;12.45;7.30;;;4.70;99.90;;;;;;4897553;29;20131;-77
2022/02/13 05:04:21;;;;;;;10.90;6.88;;;4.70;99.90;;;;;;4897487;29;20043;-75
2022/02/13 05:06:47;;;;;;;14.57;7.30;;;4.70;99.90;;;;;;4897653;29;20041;-75
2022/02/13 05:09:13;;;;;;;12.60;7.32;;;4.60;99.90;;;;;;4897588;29;20033;-75
2022/02/13 05:11:39;;;;;;;8.38;6.07;;;4.60;99.90;;;;;;4897855;29;20103;-74
2022/02/13 05:14:05;;;;;;;12.63;7.65;;;4.70;99.90;;;;;;4897096;29;20064;-75
2022/02/13 05:16:31;;;;;;;10.23;6.78;;;4.60;99.90;;;;;;4896892;29;20032;-75
2022/02/13 05:18:57;;;;;;;13.57;7.25;;;4.60;99.90;;;;;;4897165;29;20037;-75
2022/02/13 05:21:22;;;;;;;13.95;8.10;;;4.60;99.90;;;;;;4897559;29;20043;-75
2022/02/13 05:23:48;;;;;;;16.60;7.07;;;4.60;99.90;;;;;;4897480;29;20033;-74
2022/02/13 05:26:14;;;;;;;13.25;7.32;;;4.60;99.90;;;;;;4897403;29;20112;-75
2022/02/13 05:28:41;;;;;;;10.90;7.50;;;4.60;99.90;;;;;;4897397;29;20075;-76
2022/02/13 05:31:07;;;;;;;14.10;7.65;;;4.60;99.90;;;;;;4897417;29;20048;-74
2022/02/13 05:33:33;;;;;;;13.95;6.95;;;4.60;99.90;;;;;;4900655;29;20114;-75
2022/02/13 05:35:59;;;;;;;12.35;7.35;;;4.60;99.90;;;;;;4898734;29;20065;-75
2022/02/13 05:38:25;;;;;;;10.20;6.90;;;4.60;99.90;;;;;;4900995;29;20036;-75
2022/02/13 05:40:51;;;;;;;13.00;8.10;;;4.60;99.90;;;;;;4900476;29;20067;-75
2022/02/13 05:43:20;;;;;;;12.18;7.63;;;4.60;99.90;;;;;;4900687;29;20044;-75
2022/02/13 05:45:49;;;;;;;11.05;7.47;;;4.50;99.90;;;;;;4900207;29;20049;-75
2022/02/13 05:48:15;;;;;;;10.82;7.57;;;4.50;99.90;;;;;;4900724;29;20044;-74
2022/02/13 05:50:41;;;;;;;13.93;7.43;;;4.50;99.90;;;;;;4899918;29;20045;-74
2022/02/13 05:53:08;;;;;;;14.20;7.93;;;4.50;99.90;;;;;;4900368;29;20040;-74
2022/02/13 05:55:34;;;;;;;12.40;7.38;;;4.50;99.90;;;;;;4900147;29;20050;-75
2022/02/13 05:58:00;;;;;;;11.55;7.32;;;4.50;99.90;;;;;;4900881;29;20036;-75
2022/02/13 06:00:26;;;;;;;12.88;8.50;;;4.50;99.90;;;;;;4900377;29;20039;-78
2022/02/13 06:02:55;;;;;;;14.55;7.97;;;4.50;99.90;;;;;;4900831;29;20037;-79
2022/02/13 06:05:21;;;;;;;11.38;7.25;;;4.50;99.90;;;;;;4900463;29;20506;-79
2022/02/13 06:07:47;;;;;;;12.18;7.93;;;4.40;99.90;;;;;;4900521;29;20485;-75
2022/02/13 06:10:13;;;;;;;13.60;7.57;;;4.40;99.90;;;;;;4900376;29;20119;-77
2022/02/13 06:12:39;;;;;;;21.48;8.43;;;4.50;99.90;;;;;;4899956;29;20434;-76
2022/02/13 06:15:08;;;;;;;14.88;7.88;;;4.50;99.90;;;;;;4899761;29;20481;-74
2022/02/13 06:17:34;;;;;;;10.00;7.35;;;4.50;99.90;;;;;;4899699;29;20037;-79
2022/02/13 06:20:00;;;;;;;13.00;7.68;;;4.50;99.90;;;;;;4899603;29;20036;-77
2022/02/13 06:22:26;;;;;;;14.63;8.05;;;4.50;99.90;;;;;;4883700;29;20481;-77
2022/02/13 06:24:52;;;;;;;10.90;7.65;;;4.50;99.90;;;;;;4899665;29;20123;-74
2022/02/13 06:27:18;;;;;;;10.30;7.72;;;4.50;99.90;;;;;;4900267;29;20598;-79
2022/02/13 06:29:44;;;;;;;15.68;7.82;;;4.50;99.90;;;;;;4899923;29;20056;-74
2022/02/13 06:32:10;;;;;;;11.07;7.35;;;4.60;99.90;;;;;;4899753;29;20041;-79
2022/02/13 06:34:36;;;;;;;14.65;8.98;;;4.60;99.90;;;;;;4899917;29;20032;-79
2022/02/13 06:37:03;;;;;;;14.43;7.55;;;4.80;99.90;;;;;;4899606;29;20389;-80
2022/02/13 06:39:29;;;;;;;12.20;7.25;;;5.30;99.90;;;;;;4899138;29;20516;-75
2022/02/13 06:41:57;;;;;;;14.73;7.25;;;5.90;99.90;;;;;;4899729;29;20080;-75
2022/02/13 06:44:23;;;;;;;12.05;7.18;;;6.60;99.90;;;;;;4898695;29;20382;-75
2022/02/13 06:46:52;;;;;;;12.18;6.80;;;7.10;99.90;;;;;;4899510;29;20116;-77
2022/02/13 06:49:18;;;;;;;14.85;6.75;;;7.70;99.90;;;;;;4899496;29;20032;-74
2022/02/13 06:51:44;;;;;;;12.48;7.30;;;8.20;99.90;;;;;;4899253;29;20541;-74
2022/02/13 06:54:10;;;;;;;11.82;6.63;;;8.60;99.90;;;;;;4899135;29;20474;-76
2022/02/13 06:56:36;;;;;;;9.05;6.18;;;9.20;99.90;;;;;;4899398;29;20033;-75
2022/02/13 06:59:03;;;;;;;8.63;6.18;;;10.00;98.80;;;;;;4897234;29;20072;-78
2022/02/13 07:01:29;;;;;;;10.07;6.10;;;11.00;97.20;;;;;;4899330;29;20477;-79
2022/02/13 07:03:55;;;;;;;10.05;6.72;;;11.50;95.90;;;;;;4899171;29;20036;-77
2022/02/13 07:06:21;;;;;;;9.82;5.65;;;11.90;95.00;;;;;;4899118;29;20037;-76
2022/02/13 07:08:47;;;;;;;10.70;6.40;;;12.10;94.70;;;;;;4899212;29;20445;-74
2022/02/13 07:11:13;;;;;;;10.68;6.35;;;12.80;93.70;;;;;;4899096;29;20139;-76
2022/02/13 07:13:39;;;;;;;8.00;5.50;;;13.50;92.80;;;;;;4899291;29;20115;-75
2022/02/13 07:16:05;;;;;;;7.80;5.50;;;14.10;91.60;;;;;;4898864;29;20044;-77
2022/02/13 07:18:32;;;;;;;8.82;5.45;;;14.30;90.80;;;;;;4898393;29;20541;-79
2022/02/13 07:21:00;;;;;;;10.50;6.10;;;14.50;90.40;;;;;;4898845;29;20466;-80
2022/02/13 07:23:26;;;;;;;11.18;5.78;;;14.80;90.00;;;;;;4898987;29;20474;-75
2022/02/13 07:25:53;;;;;;;10.13;5.95;;;15.00;88.70;;;;;;4898935;29;20112;-79
2022/02/13 07:31:03;;;;;;;9.48;5.43;;;15.20;86.90;;;;;;4880465;29;20056;-76
2022/02/13 07:33:32;;;;;;;6.95;5.13;;;15.50;85.90;;;;;;4880511;29;20486;-76
2022/02/13 07:35:58;;;;;;;9.35;5.80;;;16.10;84.30;;;;;;4880027;29;20033;-76
2022/02/13 07:38:23;;;;;;;11.80;5.35;;;16.50;83.20;;;;;;4879807;29;20037;-80
2022/02/13 07:40:49;;;;;;;6.75;5.30;;;16.30;82.90;;;;;;4880035;29;20097;-76
2022/02/13 07:43:16;;;;;;;7.25;5.43;;;16.60;81.70;;;;;;4880292;29;20041;-79
2022/02/13 07:45:42;;;;;;;7.97;5.05;;;17.10;80.20;;;;;;4879907;29;20049;-75
2022/02/13 07:48:11;;;;;;;11.60;7.80;;;17.10;79.60;;;;;;4879666;29;20494;-78
2022/02/13 07:50:37;;;;;;;13.52;9.70;;;17.70;78.70;;;;;;4880018;29;20120;-76
2022/02/13 07:53:04;;;;;;;16.15;10.05;;;17.60;77.40;;;;;;4880087;29;20044;-77
2022/02/13 07:55:32;;;;;;;10.48;5.57;;;18.20;76.50;;;;;;4879743;29;20033;-78
2022/02/13 07:57:59;;;;;;;7.40;4.88;;;18.50;76.00;;;;;;4879252;29;20120;-75
2022/02/13 08:00:25;;;;;;;9.25;5.32;;;19.20;74.20;;;;;;4879501;29;20037;-77
2022/02/13 08:02:51;;;;;;;8.90;5.78;;;19.40;72.80;;;;;;4879667;29;20488;-75
2022/02/13 08:05:18;;;;;;;8.15;6.05;;;20.00;71.70;;;;;;4879518;29;20033;-76
2022/02/13 08:07:46;;;;;;;11.35;6.68;;;19.40;70.70;;;;;;4879317;29;20053;-77
2022/02/13 08:10:13;;;;;;;13.23;9.45;;;19.40;71.10;;;;;;4879051;29;20040;-77
2022/02/13 08:12:39;;;;;;;13.15;8.02;;;20.10;69.90;;;;;;4878831;29;20112;-76
2022/02/13 08:15:05;;;;;;;13.40;6.28;;;20.70;68.10;;;;;;4878419;29;20503;-75
2022/02/13 08:17:31;;;;;;;11.07;7.90;;;20.60;68.10;;;;;;4879639;29;20037;-79
2022/02/13 08:19:58;;;;;;;9.65;5.70;;;21.00;66.80;;;;;;4879792;29;20035;-79
2022/02/13 08:22:24;;;;;;;8.23;5.95;;;21.00;66.40;;;;;;4879356;29;20108;-76
2022/02/13 08:24:53;;;;;;;7.38;4.78;;;20.80;66.60;;;;;;4879091;29;20041;-77
2022/02/13 08:27:19;;;;;;;7.40;4.95;;;20.50;66.20;;;;;;4879013;29;20450;-76
2022/02/13 08:29:47;;;;;;;13.85;5.53;;;20.60;65.90;;;;;;4879762;29;20029;-80
2022/02/13 08:32:13;;;;;;;7.53;4.95;;;21.00;65.90;;;;;;4879214;29;20055;-79
2022/02/13 08:34:39;;;;;;;6.60;4.70;;;20.80;65.80;;;;;;4879285;29;20104;-76
2022/02/13 08:37:05;;;;;;;8.13;5.03;;;20.70;65.70;;;;;;4879247;29;20037;-76
2022/02/13 08:39:30;;;;;;;10.93;4.45;;;19.30;66.70;;;;;;4878599;29;20034;-75
2022/02/13 08:41:59;;;;;;;10.30;5.20;;;17.80;69.60;;;;;;4878949;29;20124;-77
2022/02/13 08:44:25;;;;;;;9.52;5.55;;;16.60;72.50;;;;;;4879058;29;20045;-76
2022/02/13 08:46:51;;;;;;;11.00;4.50;;;15.80;74.40;;;;;;4879292;29;20044;-76
2022/02/13 08:49:17;;;;;;;8.63;5.13;;;15.00;75.50;;;;;;4879185;29;20085;-76
2022/02/13 08:51:44;;;;;;;10.02;5.57;;;14.40;77.30;;;;;;4879093;29;20095;-76
2022/02/13 08:54:10;;;;;;;7.80;4.90;;;14.10;78.50;;;;;;4878655;29;20595;-76
2022/02/13 08:56:39;;;;;;;11.55;5.13;;;13.90;78.70;;;;;;4878849;29;20052;-76
2022/02/13 08:59:05;;;;;;;7.97;4.93;;;13.50;79.40;;;;;;4878606;29;20549;-76
2022/02/13 09:01:31;;;;;;;13.73;5.40;;;13.10;81.00;;;;;;4891108;29;20041;-79
2022/02/13 09:03:57;;;;;;;9.55;5.93;;;12.90;81.50;;;;;;4890198;29;20491;-77
2022/02/13 09:06:24;;;;;;;10.35;5.15;;;12.90;81.80;;;;;;4890243;29;20196;-76
2022/02/13 09:08:50;;;;;;;9.30;6.53;;;13.00;82.20;;;;;;4900710;29;20052;-76
2022/02/13 09:11:19;;;;;;;9.88;7.50;;;13.20;81.60;;;;;;4901235;29;20273;-76
2022/02/13 09:13:45;;;;;;;12.30;7.82;;;13.30;80.90;;;;;;4900667;29;20403;-75
2022/02/13 09:16:29;;;;;;;10.02;5.28;;;13.30;81.20;;;;;;4900115;29;20039;-77
2022/02/13 09:18:54;;;;;;;14.18;6.63;;;13.50;80.50;;;;;;4868600;29;20047;-73
2022/02/13 09:21:21;;;;;;;7.30;5.30;;;13.70;80.30;;;;;;4900562;29;20493;-76
2022/02/13 09:23:46;;;;;;;10.95;6.10;;;13.80;79.90;;;;;;4900072;29;20147;-75
2022/02/13 09:26:12;;;;;;;14.27;5.28;;;14.10;79.80;;;;;;4897243;29;20092;-76
2022/02/13 09:28:38;;;;;;;6.18;4.45;;;14.30;78.40;;;;;;4886623;29;20598;-76
2022/02/13 09:31:04;;;;;;;6.85;4.32;;;14.70;78.10;;;;;;4900006;29;20040;-76
2022/02/13 09:33:30;;;;;;;9.57;4.53;;;15.00;76.90;;;;;;4900356;29;20474;-77
2022/02/13 09:35:56;;;;;;;6.93;4.32;;;15.80;76.20;;;;;;4882615;29;20127;-78
2022/02/13 09:38:23;;;;;;;6.63;3.70;;;17.50;72.60;;;;;;4899267;29;20038;-80
2022/02/13 09:41:05;;;;;;;;;;;;;;;;;;;;;
2022/02/13 09:43:46;;;;;;;5.60;3.35;;;22.30;63.00;;;;;;4890873;29;20032;-78
2022/02/13 09:46:16;;;;;;;8.98;3.10;;;24.90;58.50;;;;;;4889705;29;20040;-77
2022/02/13 09:48:43;;;;;;;5.55;2.95;;;27.20;54.60;;;;;;4886316;29;20072;-77
2022/02/13 09:51:11;;;;;;;4.38;2.78;;;28.10;52.50;;;;;;4899450;29;20675;-78
2022/02/13 09:53:37;;;;;;;4.72;2.80;;;29.60;50.20;;;;;;4899602;29;20032;-82
2022/02/13 09:56:06;;;;;;;4.30;2.38;;;31.10;47.70;;;;;;4899107;29;20115;-78
2022/02/13 09:58:35;;;;;;;7.38;3.13;;;31.70;46.00;;;;;;4898863;29;20028;-77
2022/02/13 10:01:10;;;;;;;5.60;3.13;;;31.70;44.70;;;;;;4882301;29;20100;-81
2022/02/13 10:03:39;;;;;;;6.18;3.47;;;31.10;45.20;;;;;;4898579;29;20478;-75
2022/02/13 10:06:11;;;;;;;16.15;2.33;;;32.30;43.80;;;;;;4887040;29;20048;-76
2022/02/13 10:08:45;;;;;;;3.33;1.95;;;33.50;42.60;;;;;;4879318;29;20041;-77
2022/02/13 10:11:18;;;;;;;4.15;2.40;;;34.30;41.10;;;;;;4879048;29;20458;-77
2022/02/13 10:13:50;;;;;;;5.80;2.00;;;33.80;40.70;;;;;;4896445;29;20036;-77
2022/02/13 10:16:34;;;;;;;4.00;2.03;;;34.20;39.60;;;;;;4898763;29;20105;-75
2022/02/13 10:19:06;;;;;;;6.55;2.50;;;34.80;39.10;;;;;;4898917;29;20111;-75
2022/02/13 10:21:35;;;;;;;3.25;1.60;;;35.00;38.50;;;;;;4898821;29;20405;-80
2022/02/13 10:24:29;;;;;;;4.60;2.60;;;35.50;37.90;;;;;;4896949;29;20035;-77
2022/02/13 10:27:07;;;;;;;2.53;1.83;;;35.60;37.80;;;;;;4885300;29;20092;-77
2022/02/13 10:29:37;;;;;;;3.67;2.35;;;36.00;36.60;;;;;;4896115;29;20036;-77
2022/02/13 10:32:15;;;;;;;2.90;1.90;;;36.20;36.70;;;;;;4877257;29;20100;-76
2022/02/13 10:35:00;;;;;;;3.50;2.08;;;36.30;36.20;;;;;;4897277;29;20036;-77
2022/02/13 10:37:44;;;;;;;2.75;1.50;;;37.00;35.40;;;;;;4899209;29;20035;-77
2022/02/13 10:40:22;;;;;;;5.20;2.13;;;37.00;35.70;;;;;;4899595;29;20044;-78
2022/02/13 10:42:49;;;;;;;3.40;2.45;;;36.80;35.30;;;;;;4898533;29;20071;-76
2022/02/13 10:45:15;;;;;;;8.27;5.15;;;36.60;35.20;;;;;;4897311;29;20028;-78
2022/02/13 10:47:42;;;;;;;6.43;4.75;;;35.70;37.60;;;;;;4899338;29;20048;-76
2022/02/13 10:50:08;;;;;;;5.13;3.30;;;34.60;38.30;;;;;;4898986;29;20088;-77
2022/02/13 10:52:35;;;;;;;9.82;4.40;;;32.20;39.30;;;;;;4899741;29;20040;-77
2022/02/13 10:55:03;;;;;;;4.55;2.90;;;29.00;41.90;;;;;;4899071;29;20039;-82
2022/02/13 10:57:29;;;;;;;6.68;3.33;;;26.70;45.00;;;;;;4898581;29;20038;-78
2022/02/13 10:59:55;;;;;;;5.65;3.10;;;24.00;46.90;;;;;;4882635;29;20032;-77
2022/02/13 11:02:25;;;;;;;7.55;4.75;;;21.90;49.80;;;;;;4891949;29;20044;-76
2022/02/13 11:04:53;;;;;;;6.38;3.97;;;20.50;53.20;;;;;;4878497;29;20025;-77
2022/02/13 11:07:21;;;;;;;10.75;6.78;;;19.60;55.10;;;;;;4879444;29;20033;-81
2022/02/13 11:09:49;;;;;;;14.13;8.02;;;18.90;56.00;;;;;;4879883;29;20112;-78
2022/02/13 11:12:19;;;;;;;5.50;3.58;;;18.50;56.50;;;;;;4879989;29;20045;-80
2022/02/13 11:14:47;;;;;;;7.38;4.28;;;17.90;57.30;;;;;;4889023;29;20031;-75
2022/02/13 11:17:30;;;;;;;5.53;3.83;;;17.20;60.80;;;;;;4899064;29;20033;-76
2022/02/13 11:19:56;;;;;;;6.32;4.20;;;16.40;62.60;;;;;;4899277;29;20031;-76
2022/02/13 11:22:37;;;;;;;10.07;5.75;;;16.00;62.20;;;;;;4898819;29;20051;-75
2022/02/13 11:25:08;;;;;;;6.43;3.83;;;15.70;65.10;;;;;;4898892;29;20115;-80
2022/02/13 11:28:00;;;;;;;6.50;4.15;;;15.30;65.40;;;;;;4896537;29;20041;-76
2022/02/13 11:30:52;;;;;;;8.30;3.72;;;14.90;67.00;;;;;;4898175;29;20032;-75
2022/02/13 11:33:24;;;;;;;8.32;3.47;;;14.70;63.80;;;;;;4898139;29;20505;-76
2022/02/13 11:36:04;;;;;;;5.55;3.20;;;14.60;62.90;;;;;;4898234;29;20039;-75
2022/02/13 11:38:48;;;;;;;6.30;3.40;;;14.50;63.80;;;;;;4881460;29;20032;-75
2022/02/13 11:41:16;;;;;;;6.18;2.92;;;14.30;62.90;;;;;;4890947;29;20055;-75
2022/02/13 11:43:44;;;;;;;5.40;3.35;;;14.10;61.80;;;;;;4898117;29;20119;-75
2022/02/13 11:46:34;;;;;;;7.15;3.05;;;13.90;62.60;;;;;;4882211;29;20414;-75
2022/02/13 11:49:04;;;;;;;5.97;3.10;;;13.70;63.40;;;;;;4898675;29;20044;-75
2022/02/13 11:51:49;;;;;;;12.10;6.80;;;13.70;63.70;;;;;;4899161;29;20040;-75
2022/02/13 11:54:42;;;;;;;8.90;3.95;;;13.70;62.50;;;;;;4899240;29;20612;-74
2022/02/13 11:57:10;;;;;;;8.98;5.72;;;14.00;63.20;;;;;;4884093;29;20100;-74
2022/02/13 11:59:51;;;;;;;16.08;12.90;;;14.10;63.30;;;;;;4898431;29;20048;-74
2022/02/13 12:02:30;;;;;;;13.63;6.93;;;14.10;64.70;;;;;;4898840;29;20478;-79
2022/02/13 12:05:11;;;;;;;6.15;4.22;;;14.10;64.90;;;;;;4899071;29;20095;-75
2022/02/13 12:07:53;;;;;;;5.75;3.30;;;13.80;65.60;;;;;;4898823;29;20033;-78
2022/02/13 12:10:31;;;;;;;7.72;4.28;;;13.70;65.10;;;;;;4898500;29;20037;-79
2022/02/13 12:13:14;;;;;;;9.50;5.03;;;13.70;64.10;;;;;;4882028;29;20048;-75
2022/02/13 12:16:13;;;;;;;6.47;3.80;;;13.70;65.10;;;;;;4898849;29;20084;-77
2022/02/13 12:18:50;;;;;;;2.78;2.53;;;13.60;64.90;;;;;;4898694;29;20389;-75
2022/02/13 12:21:43;;;;;;;3.85;2.78;;;13.80;63.40;;;;;;4898471;29;20041;-74
2022/02/13 12:24:28;;;;;;;;;;;13.60;63.20;;;;;;4880983;29;20047;-74
2022/02/13 12:27:04;;;;;;;7.00;3.90;;;13.40;64.10;;;;;;4898721;29;19915;-78
2022/02/13 12:29:31;;;;;;;4.38;2.97;;;13.60;65.00;;;;;;4898561;29;20489;-74
2022/02/13 12:32:11;;;;;;;5.90;3.40;;;13.80;64.30;;;;;;4898264;29;20165;-76
2022/02/13 12:35:10;;;;;;;7.00;3.45;;;13.90;63.70;;;;;;4898770;29;20542;-79
2022/02/13 12:37:40;;;;;;;4.38;3.10;;;13.90;63.00;;;;;;4876991;29;20549;-75
2022/02/13 12:40:12;;;;;;;4.53;3.35;;;13.90;63.20;;;;;;4898281;29;20108;-75
2022/02/13 12:42:42;;;;;;;6.45;3.28;;;13.90;63.50;;;;;;4900349;29;20434;-75
2022/02/13 12:45:11;;;;;;;6.30;3.28;;;13.70;64.00;;;;;;4902055;29;20080;-76
2022/02/13 12:47:48;;;;;;;11.10;3.55;;;13.40;65.20;;;;;;4902234;29;20546;-74
2022/02/13 12:50:19;;;;;;;4.38;3.30;;;13.20;66.10;;;;;;4901932;29;20060;-75
2022/02/13 12:52:48;;;;;;;5.38;2.90;;;13.00;67.40;;;;;;4902400;29;20405;-74
2022/02/13 12:55:20;;;;;;;5.05;3.05;;;13.00;68.00;;;;;;4902287;29;20036;-75
2022/02/13 12:57:48;;;;;;;;;;;13.00;68.70;;;;;;4903253;29;20028;-75